Time;durP1;ratioP1;P1;durP2;ratioP2;P2;SDS_P1;SDS_P2;PMS_P1;PMS_P2;Temp;Humidity;BMP_temperature;BMP_pressure;BME280_temperature;BME280_humidity;BME280_pressure;Samples;Min_cycle;Max_cycle;Signal;HPM_P1;HPM_P2
2022/08/16 00:01:43;;;;;;;11.55;8.80;;;640.60;2048.00;;;;;;4974628;28;20034;-85
2022/08/16 00:04:09;;;;;;;16.73;9.20;;;640.60;2048.00;;;;;;4975732;28;20023;-84
2022/08/16 00:06:35;;;;;;;14.50;10.70;;;640.60;2048.00;;;;;;4974276;28;20074;-79
2022/08/16 00:09:00;;;;;;;13.63;9.77;;;640.70;2048.00;;;;;;4975686;28;20023;-83
2022/08/16 00:11:26;;;;;;;17.15;10.65;;;640.80;2048.00;;;;;;4975822;28;20085;-79
2022/08/16 00:13:52;;;;;;;15.20;11.80;;;640.90;2048.00;;;;;;4974160;28;20062;-79
2022/08/16 00:16:18;;;;;;;18.92;12.98;;;640.80;2073.60;;;;;;4974198;28;20019;-80
2022/08/16 00:18:44;;;;;;;18.90;12.10;;;640.60;2073.60;;;;;;4975532;28;20037;-85
2022/08/16 00:21:10;;;;;;;17.20;11.93;;;640.50;2099.20;;;;;;4975243;28;20029;-87
2022/08/16 00:23:36;;;;;;;21.48;11.73;;;640.60;2099.20;;;;;;4974188;28;20030;-83
2022/08/16 00:26:02;;;;;;;16.50;12.02;;;640.70;2073.60;;;;;;4976399;28;20042;-79
2022/08/16 00:28:28;;;;;;;14.32;11.82;;;640.70;2124.80;;;;;;4992728;28;20033;-84
2022/08/16 00:30:54;;;;;;;17.73;12.93;;;640.80;2124.80;;;;;;4975556;28;20720;-83
2022/08/16 00:33:19;;;;;;;18.40;12.15;;;640.80;2150.40;;;;;;4975178;28;20037;-86
2022/08/16 00:35:45;;;;;;;17.60;11.77;;;640.70;2176.00;;;;;;4992712;28;20063;-79
2022/08/16 00:38:11;;;;;;;16.77;12.07;;;640.90;2176.00;;;;;;4993228;28;20033;-79
2022/08/16 00:40:47;;;;;;;15.70;12.60;;;640.80;2201.60;;;;;;4992791;28;20018;-86
2022/08/16 00:43:23;;;;;;;19.77;12.32;;;640.60;2227.20;;;;;;4975004;28;20053;-83
2022/08/16 00:46:29;;;;;;;18.23;12.38;;;640.80;2227.20;;;;;;4991717;28;20069;-80
2022/08/16 00:48:55;;;;;;;15.85;12.23;;;640.60;2252.80;;;;;;4975788;28;20026;-81
2022/08/16 00:51:23;;;;;;;14.82;10.93;;;640.50;2227.20;;;;;;4994161;28;20472;-81
2022/08/16 00:53:52;;;;;;;17.65;11.35;;;640.50;2227.20;;;;;;4976819;28;20117;-84
2022/08/16 00:56:25;;;;;;;13.32;10.50;;;640.60;2201.60;;;;;;4976494;28;20053;-79
2022/08/16 00:58:52;;;;;;;14.00;11.07;;;640.60;2201.60;;;;;;4994387;28;20030;-84
2022/08/16 01:01:18;;;;;;;13.13;10.43;;;640.60;2201.60;;;;;;4994141;28;20022;-80
2022/08/16 01:03:48;;;;;;;26.95;11.73;;;640.50;2227.20;;;;;;4994161;28;20034;-83
2022/08/16 01:06:20;;;;;;;15.00;11.35;;;640.50;2227.20;;;;;;4976763;28;20034;-80
2022/08/16 01:08:49;;;;;;;17.85;10.25;;;640.20;2252.80;;;;;;4994315;28;20037;-81
2022/08/16 01:11:15;;;;;;;13.15;10.23;;;640.30;2278.40;;;;;;4976284;28;20022;-83
2022/08/16 01:13:41;;;;;;;16.13;11.45;;;640.30;2252.80;;;;;;4976592;28;20121;-79
2022/08/16 01:16:16;;;;;;;13.32;10.80;;;640.30;2227.20;;;;;;4994075;28;20097;-81
2022/08/16 01:18:47;;;;;;;11.65;9.55;;;640.30;2227.20;;;;;;4976631;28;20080;-84
2022/08/16 01:21:35;;;;;;;13.82;9.68;;;640.30;2201.60;;;;;;4993877;28;20074;-83
2022/08/16 01:24:20;;;;;;;12.13;9.38;;;640.20;2227.20;;;;;;4994134;28;20464;-79
2022/08/16 01:26:50;;;;;;;11.57;8.35;;;640.30;2227.20;;;;;;4976733;28;20027;-84
2022/08/16 01:29:21;;;;;;;10.60;8.45;;;640.20;2227.20;;;;;;4993976;28;20026;-81
2022/08/16 01:31:48;;;;;;;10.63;8.38;;;640.10;2252.80;;;;;;4977541;28;20022;-78
2022/08/16 01:34:16;;;;;;;11.32;8.32;;;640.20;2252.80;;;;;;4996322;28;20038;-80
2022/08/16 01:36:42;;;;;;;10.55;8.45;;;640.40;2227.20;;;;;;4997374;28;20058;-78
2022/08/16 01:39:11;;;;;;;9.02;7.65;;;640.30;2227.20;;;;;;4997561;28;20053;-80
2022/08/16 01:41:38;;;;;;;10.38;7.72;;;640.50;2252.80;;;;;;4997239;28;20042;-83
2022/08/16 01:44:04;;;;;;;10.38;8.45;;;640.40;2252.80;;;;;;4997437;28;20537;-79
2022/08/16 01:46:41;;;;;;;13.07;8.55;;;640.40;2278.40;;;;;;4997572;28;20026;-84
2022/08/16 01:49:17;;;;;;;12.98;8.00;;;640.40;2278.40;;;;;;4979944;28;20026;-84
2022/08/16 01:51:46;;;;;;;14.05;8.00;;;640.50;2304.00;;;;;;4997186;28;20105;-82
2022/08/16 01:54:12;;;;;;;13.73;8.57;;;640.50;2304.00;;;;;;4997169;28;20062;-83
2022/08/16 01:56:38;;;;;;;15.20;8.20;;;640.50;2304.00;;;;;;4997085;28;20056;-82
2022/08/16 01:59:06;;;;;;;11.68;7.88;;;640.40;2329.60;;;;;;4979918;28;20034;-81
2022/08/16 02:01:33;;;;;;;13.15;8.38;;;640.40;2329.60;;;;;;4996958;28;20138;-81
2022/08/16 02:03:59;;;;;;;10.13;7.80;;;640.20;2355.20;;;;;;4963570;28;20030;-83
2022/08/16 02:06:26;;;;;;;13.23;8.38;;;640.20;2380.80;;;;;;4996675;28;20018;-78
2022/08/16 02:08:53;;;;;;;13.20;7.57;;;640.20;2380.80;;;;;;4995659;28;20102;-83
2022/08/16 02:11:20;;;;;;;9.98;8.13;;;640.20;2380.80;;;;;;4993503;28;20058;-78
2022/08/16 02:13:46;;;;;;;12.65;8.38;;;640.30;2380.80;;;;;;4995888;28;20038;-78
2022/08/16 02:16:12;;;;;;;10.63;7.72;;;640.40;2406.40;;;;;;4978770;28;20025;-78
2022/08/16 02:18:39;;;;;;;11.32;9.00;;;640.30;2432.00;;;;;;4978452;28;20031;-77
2022/08/16 02:21:07;;;;;;;9.35;7.97;;;640.30;2432.00;;;;;;4978249;28;20041;-79
2022/08/16 02:23:37;;;;;;;9.45;7.70;;;640.20;2432.00;;;;;;4977970;28;20024;-77
2022/08/16 02:26:04;;;;;;;12.23;8.18;;;640.00;2432.00;;;;;;4995433;28;20027;-78
2022/08/16 02:28:32;;;;;;;12.25;8.25;;;640.20;2432.00;;;;;;4995271;28;20027;-78
2022/08/16 02:31:03;;;;;;;11.90;8.57;;;640.20;2432.00;;;;;;4978080;28;20499;-77
2022/08/16 02:33:30;;;;;;;12.52;7.88;;;640.10;2432.00;;;;;;4977837;28;20046;-78
2022/08/16 02:35:56;;;;;;;9.75;8.05;;;640.10;2432.00;;;;;;4978213;28;20018;-78
2022/08/16 02:38:23;;;;;;;12.23;8.45;;;640.10;2432.00;;;;;;4977614;28;20104;-82
2022/08/16 02:40:49;;;;;;;11.68;8.05;;;640.20;2432.00;;;;;;4978232;28;20122;-82
2022/08/16 02:43:15;;;;;;;11.55;9.23;;;640.10;2432.00;;;;;;4994680;28;20035;-79
2022/08/16 02:45:41;;;;;;;11.52;8.13;;;615.30;2432.00;;;;;;4987344;28;20042;-82
2022/08/16 02:48:07;;;;;;;10.23;8.52;;;640.10;2432.00;;;;;;4985598;28;20057;-78
2022/08/16 02:50:33;;;;;;;12.02;9.20;;;640.10;2432.00;;;;;;4985614;28;20047;-77
2022/08/16 02:53:00;;;;;;;11.82;8.50;;;640.00;2432.00;;;;;;4966513;28;20027;-77
2022/08/16 02:55:26;;;;;;;13.05;9.30;;;640.00;2432.00;;;;;;4985721;28;20384;-77
2022/08/16 02:57:51;;;;;;;13.23;8.88;;;615.30;2432.00;;;;;;4985420;28;20034;-80
2022/08/16 03:00:18;;;;;;;13.18;8.82;;;640.00;2432.00;;;;;;4966908;28;20050;-77
2022/08/16 03:02:44;;;;;;;11.20;8.68;;;615.30;2432.00;;;;;;4982704;28;20039;-78
2022/08/16 03:05:12;;;;;;;11.95;9.55;;;615.20;2432.00;;;;;;4985290;28;20126;-77
2022/08/16 03:07:39;;;;;;;17.95;8.77;;;615.20;2432.00;;;;;;4968351;28;20073;-79
2022/08/16 03:10:07;;;;;;;11.85;9.20;;;615.30;2432.00;;;;;;4984281;28;20031;-82
2022/08/16 03:12:33;;;;;;;12.15;9.30;;;615.30;2432.00;;;;;;4969189;28;20035;-79
2022/08/16 03:14:59;;;;;;;14.00;9.23;;;615.20;2432.00;;;;;;4984012;28;20154;-78
2022/08/16 03:17:25;;;;;;;10.77;9.60;;;615.30;2432.00;;;;;;4968444;28;20050;-78
2022/08/16 03:19:52;;;;;;;13.45;9.35;;;615.20;2432.00;;;;;;4983377;28;20520;-84
2022/08/16 03:22:20;;;;;;;13.23;8.73;;;615.20;2432.00;;;;;;4985522;28;20014;-79
2022/08/16 03:24:46;;;;;;;14.30;10.15;;;615.20;2432.00;;;;;;4966642;28;20043;-79
2022/08/16 03:27:11;;;;;;;16.92;10.07;;;615.20;2432.00;;;;;;4984639;28;20019;-85
2022/08/16 03:29:37;;;;;;;12.30;8.88;;;615.10;2432.00;;;;;;4985334;28;20495;-80
2022/08/16 03:32:04;;;;;;;13.98;9.77;;;615.10;2432.00;;;;;;4966073;28;20049;-77
2022/08/16 03:34:34;;;;;;;13.20;9.77;;;615.10;2432.00;;;;;;4984399;28;20022;-78
2022/08/16 03:37:00;;;;;;;12.15;9.07;;;615.10;2432.00;;;;;;4967923;28;20022;-77
2022/08/16 03:39:27;;;;;;;12.77;9.10;;;615.00;2432.00;;;;;;4968930;28;20029;-80
2022/08/16 03:41:53;;;;;;;14.52;8.95;;;615.20;2432.00;;;;;;4966808;28;20384;-81
2022/08/16 03:44:20;;;;;;;13.60;9.00;;;615.10;2432.00;;;;;;4985270;28;20508;-78
2022/08/16 03:46:46;;;;;;;13.43;9.35;;;615.10;2432.00;;;;;;4983428;28;20051;-81
2022/08/16 03:49:12;;;;;;;12.13;9.13;;;615.00;2432.00;;;;;;4977750;28;20376;-82
2022/08/16 03:51:40;;;;;;;15.55;9.30;;;615.00;2432.00;;;;;;4977760;28;20476;-79
2022/08/16 03:54:06;;;;;;;13.82;9.73;;;615.00;2432.00;;;;;;5008487;28;20046;-83
2022/08/16 03:56:32;;;;;;;10.45;9.15;;;615.00;2432.00;;;;;;4977150;28;20018;-78
2022/08/16 03:58:58;;;;;;;12.65;8.32;;;614.90;2432.00;;;;;;4994731;28;20026;-82
2022/08/16 04:01:25;;;;;;;14.23;9.30;;;614.90;2432.00;;;;;;4994968;28;20076;-79
2022/08/16 04:03:52;;;;;;;12.57;8.73;;;614.90;2432.00;;;;;;4977351;28;20366;-78
2022/08/16 04:06:18;;;;;;;15.20;9.32;;;614.80;2432.00;;;;;;4994677;28;20022;-77
2022/08/16 04:08:44;;;;;;;12.80;9.27;;;614.80;2432.00;;;;;;4994551;28;20038;-80
2022/08/16 04:11:10;;;;;;;15.13;9.05;;;614.80;2432.00;;;;;;4977178;28;20034;-80
2022/08/16 04:13:35;;;;;;;11.07;9.32;;;614.80;2432.00;;;;;;4994502;28;20042;-83
2022/08/16 04:16:01;;;;;;;12.20;8.30;;;614.80;2432.00;;;;;;4994534;28;20077;-80
2022/08/16 04:18:28;;;;;;;14.75;9.10;;;614.80;2432.00;;;;;;4994530;28;20038;-78
2022/08/16 04:20:54;;;;;;;19.70;9.35;;;614.70;2432.00;;;;;;4994650;28;20183;-78
2022/08/16 04:23:22;;;;;;;16.98;10.18;;;614.80;2432.00;;;;;;4994114;28;20022;-77
2022/08/16 04:25:48;;;;;;;11.98;9.63;;;614.60;2432.00;;;;;;4994444;28;20073;-82
2022/08/16 04:28:15;;;;;;;13.55;10.07;;;614.50;2432.00;;;;;;5001584;28;20518;-78
2022/08/16 04:30:41;;;;;;;17.00;9.75;;;614.40;2432.00;;;;;;5002668;28;20093;-79
2022/08/16 04:33:07;;;;;;;12.32;10.50;;;614.50;2432.00;;;;;;4986673;28;20117;-76
2022/08/16 04:35:33;;;;;;;15.93;9.82;;;614.50;2432.00;;;;;;5003844;28;20018;-79
2022/08/16 04:37:59;;;;;;;16.02;9.68;;;614.70;2432.00;;;;;;5002785;28;20026;-77
2022/08/16 04:40:26;;;;;;;17.80;9.20;;;614.80;2432.00;;;;;;5004117;28;20079;-78
2022/08/16 04:42:52;;;;;;;16.90;10.02;;;614.80;2432.00;;;;;;4996365;28;20096;-78
2022/08/16 04:45:19;;;;;;;20.17;9.25;;;614.80;2432.00;;;;;;5001986;28;20112;-76
2022/08/16 04:47:44;;;;;;;12.93;9.52;;;614.90;2432.00;;;;;;5007696;28;20042;-81
2022/08/16 04:50:22;;;;;;;13.32;9.18;;;614.90;2432.00;;;;;;4994132;28;20022;-82
2022/08/16 04:52:50;;;;;;;12.05;8.75;;;614.90;2432.00;;;;;;4993908;28;20022;-84
2022/08/16 04:55:19;;;;;;;14.75;9.73;;;615.00;2432.00;;;;;;4993862;28;20027;-79
2022/08/16 04:57:47;;;;;;;12.57;9.43;;;615.10;2432.00;;;;;;4998673;28;20034;-79
2022/08/16 05:00:18;;;;;;;14.45;9.63;;;615.20;2432.00;;;;;;4999947;28;20025;-83
2022/08/16 05:02:44;;;;;;;16.42;9.95;;;615.20;2432.00;;;;;;5000236;28;20425;-81
2022/08/16 05:05:11;;;;;;;14.98;10.23;;;615.20;2432.00;;;;;;4996429;28;20030;-84
2022/08/16 05:07:37;;;;;;;12.45;10.10;;;615.30;2432.00;;;;;;4981227;28;20026;-81
2022/08/16 05:10:06;;;;;;;17.25;9.63;;;615.20;2432.00;;;;;;4997876;28;20085;-81
2022/08/16 05:12:32;;;;;;;13.82;9.95;;;615.20;2432.00;;;;;;4998146;28;20034;-80
2022/08/16 05:14:58;;;;;;;14.50;9.18;;;615.10;2432.00;;;;;;4980483;28;20444;-85
2022/08/16 05:17:24;;;;;;;12.57;9.30;;;615.10;2432.00;;;;;;4980465;28;20058;-83
2022/08/16 05:19:50;;;;;;;14.18;9.57;;;615.10;2432.00;;;;;;4997977;28;20484;-83
2022/08/16 05:22:16;;;;;;;12.02;9.98;;;615.10;2432.00;;;;;;4996761;28;20077;-83
2022/08/16 05:24:42;;;;;;;12.98;9.52;;;615.20;2432.00;;;;;;4996358;28;20060;-83
2022/08/16 05:27:07;;;;;;;15.57;9.82;;;615.20;2432.00;;;;;;4980313;28;20026;-80
2022/08/16 05:29:35;;;;;;;13.10;10.10;;;615.30;2432.00;;;;;;4997608;28;20092;-82
2022/08/16 05:32:01;;;;;;;12.25;10.10;;;615.30;2432.00;;;;;;4979520;28;20057;-84
2022/08/16 05:34:27;;;;;;;14.68;9.27;;;640.00;2432.00;;;;;;4999956;28;20034;-79
2022/08/16 05:36:56;;;;;;;10.45;9.07;;;640.10;2432.00;;;;;;4992223;28;20054;-82
2022/08/16 05:39:23;;;;;;;10.50;9.10;;;640.20;2432.00;;;;;;4992167;28;20050;-82
2022/08/16 05:41:50;;;;;;;13.18;9.32;;;640.20;2432.00;;;;;;4983625;28;20042;-78
2022/08/16 05:44:17;;;;;;;13.30;9.52;;;640.40;2432.00;;;;;;4983907;28;20081;-78
2022/08/16 05:46:44;;;;;;;13.63;9.43;;;640.40;2432.00;;;;;;4996842;28;20030;-81
2022/08/16 05:49:14;;;;;;;14.23;10.27;;;640.50;2432.00;;;;;;4982027;28;20105;-80
2022/08/16 05:51:41;;;;;;;11.68;8.43;;;640.50;2432.00;;;;;;4984666;28;20081;-82
2022/08/16 05:54:08;;;;;;;13.93;8.10;;;640.60;2432.00;;;;;;5003405;28;20048;-85
2022/08/16 05:56:34;;;;;;;14.45;9.00;;;640.70;2432.00;;;;;;4996510;28;20033;-84
2022/08/16 05:59:00;;;;;;;15.10;8.93;;;640.80;2432.00;;;;;;4979388;28;20031;-84
2022/08/16 06:01:26;;;;;;;12.20;8.93;;;640.80;2432.00;;;;;;4979220;28;20089;-81
2022/08/16 06:03:51;;;;;;;10.38;8.30;;;665.60;2432.00;;;;;;4996261;28;20057;-82
2022/08/16 06:06:17;;;;;;;10.95;8.95;;;665.60;2432.00;;;;;;4999661;28;20035;-86
2022/08/16 06:08:43;;;;;;;12.65;8.52;;;665.70;2432.00;;;;;;4984508;28;20045;-81
2022/08/16 06:11:09;;;;;;;12.10;8.15;;;665.80;2432.00;;;;;;4978982;28;20034;-85
2022/08/16 06:13:36;;;;;;;10.77;7.78;;;665.90;2432.00;;;;;;4979248;28;20093;-86
2022/08/16 06:16:04;;;;;;;10.48;7.38;;;666.00;2432.00;;;;;;4979342;28;20030;-86
2022/08/16 06:18:30;;;;;;;17.75;7.25;;;666.10;2432.00;;;;;;4979225;28;20076;-83
2022/08/16 06:20:56;;;;;;;11.57;7.55;;;666.20;2432.00;;;;;;4979491;28;20035;-79
2022/08/16 06:23:22;;;;;;;10.10;7.32;;;666.30;2380.80;;;;;;4996649;28;20018;-82
2022/08/16 06:25:48;;;;;;;9.88;6.03;;;666.50;2329.60;;;;;;4979071;28;20037;-83
2022/08/16 06:28:14;;;;;;;10.20;6.97;;;691.20;2329.60;;;;;;4996498;28;20510;-83
2022/08/16 06:30:40;;;;;;;12.00;6.60;;;691.20;2278.40;;;;;;4978761;28;20034;-81
2022/08/16 06:33:06;;;;;;;11.50;6.00;;;691.40;2278.40;;;;;;4996547;28;20086;-81
2022/08/16 06:35:32;;;;;;;8.25;6.07;;;691.50;2227.20;;;;;;5008915;28;20360;-82
2022/08/16 06:37:57;;;;;;;9.70;7.35;;;691.60;2227.20;;;;;;4979473;28;20066;-82
2022/08/16 06:40:23;;;;;;;8.65;6.97;;;691.70;2227.20;;;;;;4978630;28;20484;-84
2022/08/16 06:42:54;;;;;;;9.90;6.10;;;691.80;2124.80;;;;;;4996178;28;20112;-83
2022/08/16 06:45:21;;;;;;;8.13;5.97;;;691.90;2124.80;;;;;;4979055;28;20026;-82
2022/08/16 06:47:46;;;;;;;8.60;5.93;;;692.00;2124.80;;;;;;4978396;28;20033;-83
2022/08/16 06:50:12;;;;;;;14.82;5.70;;;716.80;2099.20;;;;;;4978139;28;20391;-82
2022/08/16 06:52:38;;;;;;;12.20;5.90;;;716.90;2073.60;;;;;;4996005;28;20432;-81
2022/08/16 06:55:06;;;;;;;8.90;6.30;;;716.90;2073.60;;;;;;4975799;28;20042;-78
2022/08/16 06:57:32;;;;;;;11.70;5.95;;;717.20;2073.60;;;;;;4995732;28;20023;-77
2022/08/16 06:59:57;;;;;;;10.18;5.65;;;717.10;2022.40;;;;;;4995806;28;20033;-76
2022/08/16 07:02:24;;;;;;;9.73;5.28;;;717.20;1996.80;;;;;;4985294;28;20050;-82
2022/08/16 07:04:51;;;;;;;8.32;5.40;;;717.30;1945.60;;;;;;4990237;28;20026;-78
2022/08/16 07:07:19;;;;;;;7.45;5.47;;;717.40;1920.00;;;;;;4979118;28;20046;-75
2022/08/16 07:09:49;;;;;;;8.82;5.15;;;717.40;1894.40;;;;;;4966901;28;20030;-82
2022/08/16 07:12:15;;;;;;;6.45;5.78;;;717.50;1920.00;;;;;;4978119;28;20051;-78
2022/08/16 07:14:41;;;;;;;11.98;6.03;;;717.50;1920.00;;;;;;4992411;28;20037;-77
2022/08/16 07:17:07;;;;;;;5.65;4.55;;;717.70;1868.80;;;;;;4994205;28;20026;-82
2022/08/16 07:19:32;;;;;;;6.20;4.53;;;742.50;1894.40;;;;;;4977703;28;20027;-78
2022/08/16 07:22:01;;;;;;;8.95;5.13;;;742.50;1843.20;;;;;;4994988;28;20488;-76
2022/08/16 07:24:28;;;;;;;5.22;3.92;;;742.60;1817.60;;;;;;4967691;28;20058;-79
2022/08/16 07:26:54;;;;;;;9.80;4.47;;;742.60;1766.40;;;;;;4979356;28;20015;-79
2022/08/16 07:29:20;;;;;;;9.25;4.30;;;742.70;1766.40;;;;;;4962410;28;20038;-78
2022/08/16 07:31:46;;;;;;;10.15;4.45;;;742.80;1766.40;;;;;;4979908;28;20600;-75
2022/08/16 07:34:11;;;;;;;7.65;4.78;;;742.90;1740.80;;;;;;4984882;28;20161;-76
2022/08/16 07:36:37;;;;;;;8.15;4.57;;;742.90;1740.80;;;;;;4987889;28;20029;-76
2022/08/16 07:39:03;;;;;;;10.73;4.85;;;742.90;1740.80;;;;;;4986457;28;20480;-77
2022/08/16 07:41:29;;;;;;;8.10;5.30;;;743.00;1715.20;;;;;;5005127;28;20118;-78
2022/08/16 07:43:55;;;;;;;6.78;4.35;;;743.00;1715.20;;;;;;4985964;28;20092;-78
2022/08/16 07:46:21;;;;;;;7.78;4.45;;;743.10;1715.20;;;;;;4986920;28;20021;-79
2022/08/16 07:48:47;;;;;;;6.68;3.90;;;743.10;1715.20;;;;;;4986871;28;20034;-78
2022/08/16 07:51:13;;;;;;;6.93;4.07;;;743.10;1689.60;;;;;;4985725;28;20046;-79
2022/08/16 07:53:39;;;;;;;6.20;3.92;;;743.30;1689.60;;;;;;4987138;28;20029;-79
2022/08/16 07:56:05;;;;;;;5.90;4.57;;;743.30;1689.60;;;;;;4993088;28;20561;-78
2022/08/16 07:58:30;;;;;;;11.63;4.70;;;768.00;1715.20;;;;;;5006305;28;20022;-82
2022/08/16 08:00:56;;;;;;;10.10;4.85;;;768.00;1689.60;;;;;;4994655;28;20022;-81
2022/08/16 08:03:22;;;;;;;10.07;4.10;;;768.10;1664.00;;;;;;4995075;28;20089;-83
2022/08/16 08:05:49;;;;;;;6.40;4.22;;;768.10;1689.60;;;;;;4976994;28;20125;-83
2022/08/16 08:08:14;;;;;;;8.27;4.85;;;768.10;1664.00;;;;;;5002156;28;20034;-81
2022/08/16 08:10:40;;;;;;;10.35;4.50;;;768.20;1664.00;;;;;;4986326;28;20037;-81
2022/08/16 08:13:07;;;;;;;7.85;4.30;;;768.40;1664.00;;;;;;4985423;28;20080;-82
2022/08/16 08:15:33;;;;;;;8.20;4.43;;;768.40;1664.00;;;;;;4983228;28;20084;-83
2022/08/16 08:18:01;;;;;;;9.43;4.00;;;768.40;1638.40;;;;;;4988629;28;20022;-82
2022/08/16 08:20:27;;;;;;;7.53;4.50;;;768.40;1664.00;;;;;;4991124;28;20068;-82
2022/08/16 08:22:55;;;;;;;5.43;3.83;;;768.50;1664.00;;;;;;4990070;28;20479;-80
2022/08/16 08:25:21;;;;;;;17.65;5.18;;;768.60;1638.40;;;;;;4987318;28;20026;-80
2022/08/16 08:27:47;;;;;;;7.07;4.15;;;768.70;1664.00;;;;;;4993047;28;20506;-81
2022/08/16 08:30:14;;;;;;;9.60;4.13;;;768.70;1612.80;;;;;;4982339;28;20034;-81
2022/08/16 08:32:40;;;;;;;6.60;4.80;;;768.60;1612.80;;;;;;4986672;28;20038;-82
2022/08/16 08:35:07;;;;;;;8.45;4.38;;;768.80;1587.20;;;;;;4986172;28;20030;-80
2022/08/16 08:37:34;;;;;;;6.80;3.65;;;768.90;1612.80;;;;;;4984881;28;20029;-80
2022/08/16 08:40:01;;;;;;;10.10;4.47;;;768.90;1587.20;;;;;;4980636;28;20492;-81
2022/08/16 08:42:27;;;;;;;5.85;4.20;;;793.70;1612.80;;;;;;4972879;28;20097;-81
2022/08/16 08:44:53;;;;;;;8.35;3.63;;;793.70;1612.80;;;;;;4973568;28;20420;-82
2022/08/16 08:47:19;;;;;;;4.20;3.35;;;793.70;1612.80;;;;;;4975295;28;20086;-81
2022/08/16 08:49:46;;;;;;;7.00;3.78;;;793.90;1587.20;;;;;;4981570;28;20027;-80
2022/08/16 08:52:11;;;;;;;7.57;3.88;;;793.90;1536.00;;;;;;4984162;28;20045;-81
2022/08/16 08:54:37;;;;;;;8.20;3.72;;;793.90;1536.00;;;;;;4984571;28;20125;-81
2022/08/16 08:57:04;;;;;;;7.80;4.10;;;794.00;1536.00;;;;;;4985219;28;20105;-83
2022/08/16 08:59:31;;;;;;;9.38;4.57;;;794.00;1561.60;;;;;;4983427;28;20034;-83
2022/08/16 09:01:57;;;;;;;6.25;4.28;;;794.00;1536.00;;;;;;4976932;28;20026;-80
2022/08/16 09:04:23;;;;;;;4.97;3.42;;;794.00;1536.00;;;;;;4969829;28;20460;-82
2022/08/16 09:06:48;;;;;;;8.25;4.03;;;794.20;1536.00;;;;;;4967318;28;20034;-83
2022/08/16 09:09:15;;;;;;;5.88;4.25;;;794.10;1510.40;;;;;;4974046;28;20026;-84
2022/08/16 09:11:43;;;;;;;5.97;3.97;;;794.20;1536.00;;;;;;4973071;28;20580;-83
2022/08/16 09:14:09;;;;;;;6.25;4.35;;;794.20;1536.00;;;;;;4990572;28;20412;-81
2022/08/16 09:16:35;;;;;;;9.23;4.45;;;794.40;1536.00;;;;;;4986732;28;20027;-81
2022/08/16 09:19:01;;;;;;;6.32;4.15;;;819.20;1536.00;;;;;;4994086;28;20413;-86
2022/08/16 09:21:26;;;;;;;5.35;3.75;;;819.20;1510.40;;;;;;4989591;28;20065;-82
2022/08/16 09:23:53;;;;;;;6.90;4.32;;;819.20;1484.80;;;;;;4981148;28;20038;-79
2022/08/16 09:26:20;;;;;;;10.45;3.92;;;819.30;1484.80;;;;;;4973031;28;20069;-86
2022/08/16 09:28:46;;;;;;;8.55;3.80;;;819.40;1484.80;;;;;;4973472;28;20038;-86
2022/08/16 09:31:13;;;;;;;9.18;4.13;;;819.50;1484.80;;;;;;4973984;28;20027;-79
2022/08/16 09:33:40;;;;;;;8.07;4.43;;;819.50;1484.80;;;;;;4974857;28;20066;-84
2022/08/16 09:36:07;;;;;;;6.05;4.03;;;819.60;1484.80;;;;;;4987308;28;20015;-84
2022/08/16 09:38:34;;;;;;;10.88;5.60;;;819.70;1408.00;;;;;;4989563;28;20061;-88
2022/08/16 09:41:02;;;;;;;10.70;4.50;;;820.00;1433.60;;;;;;4976361;28;20051;-87
2022/08/16 09:43:28;;;;;;;6.40;4.10;;;820.00;1408.00;;;;;;4976495;28;20026;-84
2022/08/16 09:45:54;;;;;;;6.22;4.20;;;844.80;1408.00;;;;;;5006526;28;20637;-82
2022/08/16 09:48:19;;;;;;;7.07;3.92;;;844.90;1408.00;;;;;;4977046;28;20054;-84
2022/08/16 09:50:45;;;;;;;11.80;4.05;;;844.90;1382.40;;;;;;4973396;28;20026;-84
2022/08/16 09:53:18;;;;;;;7.78;3.53;;;845.20;1356.80;;;;;;4980369;28;20066;-81
2022/08/16 09:55:46;;;;;;;8.25;3.60;;;845.20;1356.80;;;;;;4980471;28;20031;-83
2022/08/16 09:58:13;;;;;;;7.40;3.72;;;845.20;1356.80;;;;;;4995249;28;20046;-81
2022/08/16 10:00:38;;;;;;;7.30;3.75;;;845.40;1331.20;;;;;;4980398;28;20106;-86
2022/08/16 10:03:04;;;;;;;6.30;3.53;;;845.50;1331.20;;;;;;4979619;28;20455;-82
2022/08/16 10:05:32;;;;;;;9.00;3.47;;;845.60;1331.20;;;;;;4979913;28;20100;-86
2022/08/16 10:07:58;;;;;;;7.22;3.92;;;845.70;1305.60;;;;;;4979619;28;20027;-81
2022/08/16 10:10:24;;;;;;;5.32;3.28;;;870.50;1280.00;;;;;;4979776;28;20527;-83
2022/08/16 10:15:35;;;;;;;7.35;3.72;;;870.70;1280.00;;;;;;4982958;28;20040;-80
2022/08/16 10:18:07;;;;;;;9.05;3.58;;;870.90;1280.00;;;;;;4994433;28;20030;-84
2022/08/16 10:20:41;;;;;;;6.90;3.90;;;870.90;1254.40;;;;;;4989248;28;20030;-81
2022/08/16 10:23:09;;;;;;;7.57;3.88;;;870.90;1228.80;;;;;;4987136;28;20034;-82
2022/08/16 10:25:39;;;;;;;5.47;3.72;;;870.90;1254.40;;;;;;4987940;28;20018;-84
2022/08/16 10:28:05;;;;;;;6.97;3.58;;;871.20;1228.80;;;;;;4990765;28;20026;-83
2022/08/16 10:30:31;;;;;;;6.90;3.78;;;871.30;1203.20;;;;;;4988410;28;20068;-86
2022/08/16 10:32:57;;;;;;;4.97;3.50;;;896.10;1177.60;;;;;;4989782;28;20029;-82
2022/08/16 10:35:24;;;;;;;5.07;3.63;;;896.20;1177.60;;;;;;5005810;28;20034;-81
2022/08/16 10:37:50;;;;;;;9.23;4.15;;;;;;;;;;4988033;28;20044;-86
2022/08/16 10:40:17;;;;;;;4.65;3.50;;;896.50;1203.20;;;;;;4990052;28;20081;-84
2022/08/16 10:42:43;;;;;;;6.60;3.97;;;896.80;1152.00;;;;;;4989234;28;20045;-87
2022/08/16 10:45:09;;;;;;;7.25;3.78;;;896.80;1126.40;;;;;;4989073;28;20519;-83
2022/08/16 10:47:35;;;;;;;5.95;4.18;;;896.90;1126.40;;;;;;4990216;28;20487;-85
2022/08/16 10:50:02;;;;;;;5.28;3.78;;;896.90;1100.80;;;;;;5004718;28;20022;-87
2022/08/16 10:52:28;;;;;;;7.68;3.72;;;896.90;1100.80;;;;;;4978687;28;20421;-84
2022/08/16 10:54:54;;;;;;;9.80;3.72;;;896.90;1126.40;;;;;;4976405;28;20042;-84
2022/08/16 10:57:20;;;;;;;5.43;3.50;;;896.90;1126.40;;;;;;4995074;28;20018;-88
2022/08/16 10:59:45;;;;;;;6.50;4.03;;;921.80;1126.40;;;;;;4995488;28;20402;-81
2022/08/16 11:02:12;;;;;;;8.55;3.83;;;921.70;1100.80;;;;;;4988437;28;20026;-85
2022/08/16 11:04:38;;;;;;;6.40;3.58;;;921.90;1100.80;;;;;;4987087;28;20019;-83
2022/08/16 11:07:04;;;;;;;8.27;3.92;;;921.90;1126.40;;;;;;4986840;28;20246;-88
2022/08/16 11:09:31;;;;;;;6.20;3.50;;;921.80;1126.40;;;;;;4987379;28;20076;-86
2022/08/16 11:11:56;;;;;;;7.78;3.85;;;921.90;1100.80;;;;;;4988032;28;20509;-87
2022/08/16 11:14:23;;;;;;;6.10;3.55;;;921.90;1075.20;;;;;;4988289;28;20196;-85
2022/08/16 11:16:49;;;;;;;5.60;4.00;;;921.90;1100.80;;;;;;4989614;28;20050;-84
2022/08/16 11:19:15;;;;;;;5.38;3.55;;;922.00;1100.80;;;;;;4988705;28;20076;-89
2022/08/16 11:21:42;;;;;;;6.13;3.70;;;922.00;1126.40;;;;;;4992250;28;20029;-86
2022/08/16 11:24:09;;;;;;;6.38;3.85;;;922.10;1100.80;;;;;;4986499;28;20500;-90
2022/08/16 11:26:34;;;;;;;5.10;3.47;;;922.40;1049.60;;;;;;4977708;28;20101;-88
2022/08/16 11:29:00;;;;;;;10.68;4.15;;;922.50;1075.20;;;;;;4995575;28;20034;-84
2022/08/16 11:31:26;;;;;;;5.35;3.85;;;922.30;1100.80;;;;;;4997972;28;20023;-84
2022/08/16 11:33:52;;;;;;;7.70;3.88;;;922.40;1075.20;;;;;;4985962;28;20034;-82
2022/08/16 11:36:18;;;;;;;7.50;3.70;;;922.40;1049.60;;;;;;5006162;28;20033;-86
2022/08/16 11:38:45;;;;;;;6.40;3.65;;;922.40;1049.60;;;;;;4996825;28;20165;-80
2022/08/16 11:41:11;;;;;;;6.20;4.00;;;922.50;1049.60;;;;;;4996983;28;20057;-83
2022/08/16 11:43:40;;;;;;;8.68;3.95;;;922.50;1049.60;;;;;;4997064;28;20030;-81
2022/08/16 11:46:12;;;;;;;8.68;4.00;;;922.50;1049.60;;;;;;4997116;28;20068;-83
2022/08/16 11:48:38;;;;;;;7.03;3.50;;;922.50;1049.60;;;;;;5014808;28;20029;-83
2022/08/16 11:51:05;;;;;;;6.38;4.00;;;922.50;1049.60;;;;;;4997489;28;20037;-81
2022/08/16 11:53:31;;;;;;;4.95;3.97;;;947.30;1049.60;;;;;;5014767;28;20030;-83
2022/08/16 11:55:58;;;;;;;7.43;3.95;;;;;;;;;;4996909;28;20028;-81
2022/08/16 11:58:26;;;;;;;8.15;4.05;;;947.60;998.40;;;;;;4993612;28;20026;-80
2022/08/16 12:00:54;;;;;;;7.60;4.35;;;947.50;998.40;;;;;;4986082;28;20021;-78
2022/08/16 12:03:23;;;;;;;8.95;4.13;;;947.50;998.40;;;;;;4987816;28;20468;-78
2022/08/16 12:05:49;;;;;;;10.20;5.18;;;947.40;998.40;;;;;;5004267;28;20053;-80
2022/08/16 12:08:14;;;;;;;6.25;4.30;;;947.40;1024.00;;;;;;4988205;28;20107;-82
2022/08/16 12:10:41;;;;;;;6.65;4.55;;;947.20;998.40;;;;;;4985566;28;20038;-85
2022/08/16 12:13:08;;;;;;;8.38;4.60;;;947.50;998.40;;;;;;4986436;28;20533;-83